Time;durP1;ratioP1;P1;durP2;ratioP2;P2;SDS_P1;SDS_P2;PMS_P1;PMS_P2;Temp;Humidity;BMP_temperature;BMP_pressure;BME280_temperature;BME280_humidity;BME280_pressure;Samples;Min_cycle;Max_cycle;Signal;HPM_P1;HPM_P2
2022/05/19 00:01:08;;;;;;;3.23;2.93;;;25.40;77.30;;;;;;5084615;28;20443;-64
2022/05/19 00:03:37;;;;;;;3.80;3.60;;;25.40;77.50;;;;;;5091830;28;20466;-64
2022/05/19 00:06:06;;;;;;;3.83;3.57;;;25.40;77.70;;;;;;5091930;28;20442;-63
2022/05/19 00:08:33;;;;;;;3.27;3.10;;;25.40;77.70;;;;;;5091679;28;20537;-64
2022/05/19 00:11:03;;;;;;;4.17;3.97;;;25.40;77.70;;;;;;5079645;28;20451;-63
2022/05/19 00:13:31;;;;;;;3.63;3.43;;;25.40;77.80;;;;;;5071571;28;20463;-64
2022/05/19 00:15:57;;;;;;;3.70;3.50;;;25.30;77.80;;;;;;5071609;28;20447;-63
2022/05/19 00:18:26;;;;;;;3.10;2.90;;;25.40;77.80;;;;;;5071307;28;20482;-63
2022/05/19 00:20:52;;;;;;;3.70;3.50;;;25.30;77.90;;;;;;5081892;28;20457;-64
2022/05/19 00:23:19;;;;;;;3.73;3.43;;;25.30;78.00;;;;;;5091472;28;20481;-63
2022/05/19 00:25:47;;;;;;;2.97;2.87;;;25.30;78.10;;;;;;5091686;28;20453;-63
2022/05/19 00:28:14;;;;;;;3.70;3.50;;;25.30;78.10;;;;;;5091463;28;20446;-64
2022/05/19 00:30:42;;;;;;;3.10;2.90;;;25.30;78.10;;;;;;5082719;28;20443;-64
2022/05/19 00:33:09;;;;;;;3.27;3.17;;;25.30;78.20;;;;;;5071383;28;20558;-64
2022/05/19 00:35:38;;;;;;;3.60;3.40;;;25.30;78.30;;;;;;5071412;28;20933;-64
2022/05/19 00:38:05;;;;;;;3.60;3.30;;;25.30;78.30;;;;;;5071430;28;20479;-63
2022/05/19 00:40:33;;;;;;;3.13;2.97;;;25.20;78.30;;;;;;5091522;28;20450;-64
2022/05/19 00:43:00;;;;;;;4.10;3.80;;;25.20;78.40;;;;;;5091487;28;20961;-63
2022/05/19 00:45:28;;;;;;;3.43;3.23;;;25.20;78.50;;;;;;5091531;28;20535;-63
2022/05/19 00:47:59;;;;;;;3.33;3.13;;;25.30;78.60;;;;;;5091113;28;20466;-63
2022/05/19 00:50:29;;;;;;;4.50;4.30;;;25.20;78.60;;;;;;5091006;28;20450;-63
2022/05/19 00:53:02;;;;;;;3.77;3.57;;;25.20;78.60;;;;;;5091330;28;20473;-63
2022/05/19 00:55:34;;;;;;;3.30;3.00;;;25.20;78.60;;;;;;5091425;28;20499;-63
2022/05/19 00:58:06;;;;;;;2.93;2.77;;;25.20;78.70;;;;;;5090880;28;20505;-63
2022/05/19 01:00:33;;;;;;;3.50;2.97;;;25.20;78.60;;;;;;5071165;28;20455;-62
2022/05/19 01:03:01;;;;;;;4.07;3.77;;;25.20;78.60;;;;;;5071003;28;20460;-63
2022/05/19 01:05:34;;;;;;;3.00;2.80;;;25.20;78.60;;;;;;5071039;28;20455;-63
2022/05/19 01:08:10;;;;;;;3.50;3.20;;;25.20;78.50;;;;;;5085607;28;20457;-63
2022/05/19 01:10:37;;;;;;;3.03;2.83;;;25.10;78.30;;;;;;5095293;28;20441;-67
2022/05/19 01:13:05;;;;;;;3.50;3.20;;;25.20;78.60;;;;;;5095132;28;20462;-64
2022/05/19 01:15:35;;;;;;;3.67;3.47;;;25.10;78.40;;;;;;5095120;28;21240;-63
2022/05/19 01:18:02;;;;;;;3.50;3.40;;;25.10;78.30;;;;;;5080882;28;20485;-63
2022/05/19 01:20:29;;;;;;;4.93;3.23;;;25.10;78.30;;;;;;5074708;28;20824;-63
2022/05/19 01:23:10;;;;;;;3.40;3.07;;;25.10;78.30;;;;;;5074300;28;20821;-64
2022/05/19 01:25:46;;;;;;;3.10;2.90;;;25.10;78.30;;;;;;5074550;28;20450;-63
2022/05/19 01:28:15;;;;;;;3.47;3.20;;;25.10;78.40;;;;;;5088843;28;20952;-64
2022/05/19 01:30:42;;;;;;;3.17;3.03;;;25.00;78.40;;;;;;5094795;28;20445;-63
2022/05/19 01:33:09;;;;;;;3.60;3.40;;;25.00;78.20;;;;;;5094793;28;20830;-63
2022/05/19 01:35:36;;;;;;;3.13;3.03;;;25.00;78.10;;;;;;5092850;28;20446;-63
2022/05/19 01:38:07;;;;;;;3.50;3.30;;;25.00;77.90;;;;;;5094195;28;20509;-63
2022/05/19 01:40:48;;;;;;;3.97;3.67;;;25.00;77.70;;;;;;5094630;28;20449;-63
2022/05/19 01:43:26;;;;;;;3.27;3.17;;;25.00;77.70;;;;;;5094450;28;20466;-63
2022/05/19 01:46:07;;;;;;;3.43;3.33;;;25.00;77.50;;;;;;5080001;28;20458;-63
2022/05/19 01:48:40;;;;;;;3.23;3.13;;;25.00;77.30;;;;;;5074019;28;20453;-63
2022/05/19 01:51:13;;;;;;;3.70;3.10;;;25.00;77.40;;;;;;5074231;28;20455;-63
2022/05/19 01:53:47;;;;;;;3.47;3.23;;;25.00;77.20;;;;;;5074084;28;20810;-63
2022/05/19 01:56:20;;;;;;;3.10;3.00;;;25.00;76.90;;;;;;5090751;28;20481;-63
2022/05/19 01:58:53;;;;;;;3.13;3.03;;;25.00;76.90;;;;;;5093963;28;20485;-63
2022/05/19 02:01:25;;;;;;;3.47;3.17;;;25.00;76.80;;;;;;5094126;28;20445;-62
2022/05/19 02:03:59;;;;;;;3.30;3.10;;;25.00;76.60;;;;;;5094087;28;20458;-63
2022/05/19 02:06:32;;;;;;;3.17;3.00;;;24.90;76.60;;;;;;5075419;28;20451;-62
2022/05/19 02:09:02;;;;;;;3.77;3.50;;;24.90;76.50;;;;;;5073566;28;20516;-63
2022/05/19 02:11:32;;;;;;;3.70;3.50;;;24.90;76.40;;;;;;5073819;28;20444;-63
2022/05/19 02:14:06;;;;;;;3.43;3.23;;;24.90;76.20;;;;;;5073483;28;20467;-63
2022/05/19 02:16:34;;;;;;;3.80;3.60;;;24.90;76.20;;;;;;5092495;28;20450;-63
2022/05/19 02:19:01;;;;;;;3.67;3.37;;;24.90;76.10;;;;;;5092918;28;20489;-63
2022/05/19 02:21:29;;;;;;;4.23;3.53;;;24.90;76.20;;;;;;5093712;28;20445;-63
2022/05/19 02:23:57;;;;;;;3.70;3.50;;;24.90;76.20;;;;;;5093498;28;20477;-63
2022/05/19 02:26:24;;;;;;;3.23;3.03;;;24.90;76.10;;;;;;5077091;28;20459;-63
2022/05/19 02:28:56;;;;;;;3.83;3.63;;;24.90;76.10;;;;;;5073170;28;20443;-63
2022/05/19 02:31:24;;;;;;;3.67;3.47;;;24.90;76.10;;;;;;5073372;28;20473;-63
2022/05/19 02:33:51;;;;;;;3.07;2.87;;;24.90;76.00;;;;;;5073257;28;20463;-63
2022/05/19 02:36:17;;;;;;;4.50;2.77;;;24.80;75.80;;;;;;5089250;28;20443;-63
2022/05/19 02:38:44;;;;;;;2.50;2.40;;;24.90;75.80;;;;;;5093112;28;20478;-62
2022/05/19 02:41:11;;;;;;;2.83;2.73;;;24.80;75.70;;;;;;5093452;28;20446;-63
2022/05/19 02:43:38;;;;;;;2.63;2.53;;;24.80;75.70;;;;;;5085046;28;20490;-63
2022/05/19 02:46:05;;;;;;;2.83;2.67;;;24.80;75.60;;;;;;5073149;28;20849;-63
2022/05/19 02:48:34;;;;;;;2.73;2.63;;;24.90;75.80;;;;;;5072900;28;20862;-63
2022/05/19 02:51:01;;;;;;;3.00;2.80;;;24.80;75.70;;;;;;5072835;28;20957;-63
2022/05/19 02:53:28;;;;;;;3.50;3.30;;;24.80;75.70;;;;;;5078788;28;20985;-63
2022/05/19 02:55:55;;;;;;;3.40;3.13;;;24.80;75.80;;;;;;5093110;28;20450;-63
2022/05/19 02:58:21;;;;;;;3.30;3.10;;;24.80;75.80;;;;;;5092714;28;20845;-63
2022/05/19 03:00:49;;;;;;;3.23;2.97;;;24.80;76.10;;;;;;5092974;28;20446;-63
2022/05/19 03:03:17;;;;;;;3.80;3.60;;;24.80;76.30;;;;;;5088457;28;20459;-63
2022/05/19 03:05:45;;;;;;;3.83;3.63;;;24.80;76.50;;;;;;5072591;28;20957;-63
2022/05/19 03:08:12;;;;;;;3.10;2.90;;;24.80;76.70;;;;;;5072355;28;20466;-63
2022/05/19 03:10:43;;;;;;;3.43;3.23;;;24.80;76.60;;;;;;5072589;28;20439;-63
2022/05/19 03:13:17;;;;;;;3.77;3.57;;;24.80;76.60;;;;;;5075441;28;20466;-63
2022/05/19 03:15:44;;;;;;;3.60;3.30;;;24.80;76.60;;;;;;5092725;28;20446;-63
2022/05/19 03:18:11;;;;;;;2.90;2.80;;;24.70;76.40;;;;;;5092506;28;20478;-63
2022/05/19 03:20:38;;;;;;;2.73;2.63;;;24.70;76.30;;;;;;5092535;28;20535;-63
2022/05/19 03:23:06;;;;;;;3.63;3.33;;;24.70;76.20;;;;;;5089953;28;20478;-62
2022/05/19 03:25:33;;;;;;;3.40;3.20;;;24.70;76.00;;;;;;5072277;28;20448;-62
2022/05/19 03:28:00;;;;;;;3.33;3.23;;;24.70;76.00;;;;;;5071983;28;20440;-63
2022/05/19 03:30:27;;;;;;;3.03;2.70;;;24.70;75.70;;;;;;5072197;28;20454;-63
2022/05/19 03:32:54;;;;;;;3.37;3.27;;;24.70;75.80;;;;;;5082987;28;21001;-63
2022/05/19 03:35:21;;;;;;;4.63;3.20;;;24.70;75.60;;;;;;5092309;28;20453;-63
2022/05/19 03:37:47;;;;;;;2.97;2.67;;;24.70;75.50;;;;;;5092093;28;21004;-61
2022/05/19 03:40:17;;;;;;;3.43;3.23;;;24.70;75.30;;;;;;5089011;28;20440;-63
2022/05/19 03:42:44;;;;;;;6.30;4.33;;;24.70;75.40;;;;;;5071970;28;20447;-63
2022/05/19 03:45:11;;;;;;;3.83;3.00;;;24.70;76.90;;;;;;5071963;28;20443;-63
2022/05/19 03:47:38;;;;;;;4.43;3.87;;;24.70;79.80;;;;;;5071870;28;20807;-63
2022/05/19 03:50:06;;;;;;;4.40;4.00;;;24.70;82.00;;;;;;5073061;28;20435;-63
2022/05/19 03:52:32;;;;;;;7.47;4.77;;;24.70;82.70;;;;;;5092107;28;20439;-63
2022/05/19 03:54:59;;;;;;;5.37;4.17;;;24.70;86.30;;;;;;5092020;28;20438;-63
2022/05/19 03:57:27;;;;;;;4.73;3.60;;;24.70;87.10;;;;;;5087759;28;20442;-62
2022/05/19 03:59:54;;;;;;;4.03;3.73;;;24.70;86.80;;;;;;5071711;28;20447;-60
2022/05/19 04:02:21;;;;;;;4.50;4.10;;;24.80;85.50;;;;;;5071710;28;20450;-59
2022/05/19 04:04:47;;;;;;;3.60;3.23;;;24.80;84.50;;;;;;5071643;28;20471;-59
2022/05/19 04:07:14;;;;;;;3.73;3.47;;;24.90;83.60;;;;;;5071434;28;20440;-60
2022/05/19 04:09:41;;;;;;;4.00;3.60;;;24.90;82.70;;;;;;5071448;28;20443;-61
2022/05/19 04:12:10;;;;;;;3.77;3.47;;;24.90;83.10;;;;;;5071710;28;20523;-59
2022/05/19 04:14:38;;;;;;;3.60;3.40;;;24.90;82.00;;;;;;5071547;28;20470;-59
2022/05/19 04:17:05;;;;;;;3.37;3.07;;;24.90;81.60;;;;;;5071431;28;20446;-60
2022/05/19 04:19:32;;;;;;;3.73;3.43;;;24.90;81.10;;;;;;5071352;28;20486;-60
2022/05/19 04:21:58;;;;;;;4.03;3.73;;;24.90;80.80;;;;;;5071619;28;20938;-60
2022/05/19 04:24:25;;;;;;;3.50;3.30;;;25.00;80.60;;;;;;5071996;28;20463;-61
2022/05/19 04:26:52;;;;;;;2.90;2.70;;;25.00;80.40;;;;;;5071325;28;20443;-61
2022/05/19 04:29:19;;;;;;;3.50;3.20;;;25.00;80.30;;;;;;5071370;28;20450;-59
2022/05/19 04:31:47;;;;;;;3.50;2.90;;;25.00;80.20;;;;;;5071412;28;20487;-60
2022/05/19 04:34:13;;;;;;;3.97;3.03;;;25.00;80.10;;;;;;5071303;28;20467;-59
2022/05/19 04:36:40;;;;;;;3.33;2.93;;;25.00;80.00;;;;;;5071535;28;20832;-59
2022/05/19 04:39:07;;;;;;;4.97;3.20;;;25.00;79.60;;;;;;5071158;28;20608;-60
2022/05/19 04:41:34;;;;;;;3.10;3.00;;;25.00;79.60;;;;;;5071150;28;20818;-59
2022/05/19 04:44:00;;;;;;;2.63;2.53;;;25.00;79.50;;;;;;5074577;28;20826;-60
2022/05/19 04:46:27;;;;;;;3.40;3.10;;;25.00;79.50;;;;;;5075318;28;20443;-59
2022/05/19 04:48:55;;;;;;;4.53;3.67;;;25.00;79.20;;;;;;5075041;28;20443;-59
2022/05/19 04:51:22;;;;;;;2.90;2.80;;;25.00;79.00;;;;;;5075290;28;20451;-61
2022/05/19 04:53:48;;;;;;;2.93;2.80;;;25.00;79.20;;;;;;5075207;28;20827;-61
2022/05/19 04:56:15;;;;;;;3.07;2.93;;;25.00;79.10;;;;;;5075179;28;20443;-61
2022/05/19 04:58:42;;;;;;;2.50;2.40;;;25.00;79.00;;;;;;5074874;28;20833;-61
2022/05/19 05:01:09;;;;;;;2.83;2.73;;;25.00;78.90;;;;;;5075076;28;20452;-60
2022/05/19 05:03:36;;;;;;;3.50;3.30;;;25.00;78.90;;;;;;5074914;28;21001;-60
2022/05/19 05:06:04;;;;;;;3.93;3.07;;;25.00;78.90;;;;;;5074943;28;20538;-60
2022/05/19 05:08:31;;;;;;;3.50;3.30;;;25.00;78.80;;;;;;5074734;28;20811;-60
2022/05/19 05:10:57;;;;;;;3.03;2.80;;;25.00;78.70;;;;;;5074860;28;20465;-61
2022/05/19 05:13:24;;;;;;;2.90;2.70;;;25.00;78.60;;;;;;5074931;28;20467;-60
2022/05/19 05:15:51;;;;;;;2.73;2.60;;;25.00;78.50;;;;;;5074780;28;20443;-60
2022/05/19 05:18:18;;;;;;;2.73;2.63;;;25.00;79.20;;;;;;5074452;28;20974;-60
2022/05/19 05:20:45;;;;;;;2.60;2.50;;;25.00;78.30;;;;;;5074588;28;20466;-59
2022/05/19 05:23:13;;;;;;;3.20;3.00;;;25.00;78.20;;;;;;5074469;28;20471;-60
2022/05/19 05:25:41;;;;;;;2.63;2.53;;;25.00;78.20;;;;;;5074553;28;20443;-61
2022/05/19 05:28:08;;;;;;;2.70;2.60;;;25.10;78.30;;;;;;5074345;28;20439;-60
2022/05/19 05:30:35;;;;;;;2.90;2.70;;;25.00;78.10;;;;;;5074497;28;20439;-59
2022/05/19 05:33:07;;;;;;;3.93;3.63;;;25.00;78.20;;;;;;5074417;28;20459;-60
2022/05/19 05:35:34;;;;;;;3.87;3.67;;;25.10;78.40;;;;;;5074526;28;20450;-61
2022/05/19 05:38:01;;;;;;;3.27;3.10;;;25.00;78.20;;;;;;5074147;28;20842;-61
2022/05/19 05:40:30;;;;;;;3.00;2.90;;;25.00;78.20;;;;;;5074405;28;20447;-59
2022/05/19 05:42:56;;;;;;;4.13;3.83;;;25.00;78.50;;;;;;5074189;28;20474;-61
2022/05/19 05:45:23;;;;;;;4.30;4.10;;;25.10;78.80;;;;;;5074269;28;20798;-60
2022/05/19 05:47:50;;;;;;;2.57;2.47;;;25.00;78.60;;;;;;5074093;28;20791;-59
2022/05/19 05:50:17;;;;;;;3.33;3.23;;;25.00;78.40;;;;;;5074166;28;20451;-59
2022/05/19 05:52:44;;;;;;;2.87;2.73;;;25.00;79.10;;;;;;5074097;28;20518;-59
2022/05/19 05:55:11;;;;;;;2.90;2.70;;;25.00;78.80;;;;;;5072791;28;20479;-58
2022/05/19 05:57:39;;;;;;;3.23;3.13;;;25.00;79.10;;;;;;5073874;28;20454;-59
2022/05/19 06:00:10;;;;;;;6.93;5.13;;;25.00;79.20;;;;;;5073864;28;20483;-60
2022/05/19 06:02:37;;;;;;;2.87;2.77;;;25.00;80.00;;;;;;5073864;28;20857;-59
2022/05/19 06:05:04;;;;;;;3.27;3.17;;;25.00;79.20;;;;;;5073956;28;20443;-61
2022/05/19 06:07:32;;;;;;;3.00;2.80;;;25.00;79.20;;;;;;5073720;28;20813;-58
2022/05/19 06:09:59;;;;;;;3.40;3.20;;;25.00;79.10;;;;;;5073726;28;20555;-60
2022/05/19 06:12:26;;;;;;;3.20;3.10;;;25.10;79.20;;;;;;5073879;28;20800;-60
2022/05/19 06:14:56;;;;;;;3.23;3.03;;;25.10;79.10;;;;;;5073666;28;20471;-60
2022/05/19 06:17:23;;;;;;;3.17;2.97;;;25.10;79.80;;;;;;5073434;28;20474;-60
2022/05/19 06:19:50;;;;;;;2.97;2.77;;;25.10;79.30;;;;;;5073439;28;20616;-60
2022/05/19 06:22:17;;;;;;;3.07;2.90;;;25.10;79.10;;;;;;5073442;28;20509;-59
2022/05/19 06:24:44;;;;;;;3.33;3.03;;;25.10;79.00;;;;;;5073452;28;21034;-59
2022/05/19 06:27:11;;;;;;;3.10;2.90;;;25.10;79.10;;;;;;5073362;28;20976;-60
2022/05/19 06:29:38;;;;;;;2.90;2.70;;;25.10;79.10;;;;;;5073315;28;20440;-57
2022/05/19 06:32:07;;;;;;;2.80;2.70;;;25.10;79.00;;;;;;5073546;28;20462;-59
2022/05/19 06:34:34;;;;;;;2.67;2.47;;;25.10;79.50;;;;;;5073188;28;20974;-60
2022/05/19 06:37:02;;;;;;;2.40;2.30;;;25.10;79.60;;;;;;5073013;28;20474;-59
2022/05/19 06:39:29;;;;;;;3.17;2.93;;;25.10;79.60;;;;;;5073074;28;20486;-60
2022/05/19 06:42:01;;;;;;;2.30;2.20;;;25.10;79.50;;;;;;5073128;28;20551;-60
2022/05/19 06:44:30;;;;;;;2.60;2.50;;;25.10;79.40;;;;;;5073098;28;20464;-59
2022/05/19 06:46:57;;;;;;;3.27;3.03;;;25.10;79.50;;;;;;5072905;28;20517;-59
2022/05/19 06:49:25;;;;;;;2.63;2.53;;;25.10;79.40;;;;;;5073090;28;21090;-60
2022/05/19 06:51:52;;;;;;;2.87;2.77;;;25.10;79.30;;;;;;5072923;28;20451;-60
2022/05/19 06:54:19;;;;;;;2.43;2.33;;;25.10;79.60;;;;;;5072929;28;20467;-60
2022/05/19 06:56:46;;;;;;;2.80;2.67;;;25.10;79.50;;;;;;5072843;28;20451;-59
2022/05/19 06:59:15;;;;;;;2.87;2.70;;;25.10;79.50;;;;;;5072817;28;20479;-57
2022/05/19 07:01:42;;;;;;;2.90;2.80;;;25.20;79.70;;;;;;5072766;28;20447;-59
2022/05/19 07:04:09;;;;;;;2.80;2.70;;;25.10;79.30;;;;;;5072652;28;20846;-59
2022/05/19 07:06:37;;;;;;;3.03;2.83;;;25.20;79.70;;;;;;5072282;28;20816;-60
2022/05/19 07:09:04;;;;;;;2.77;2.67;;;25.20;79.50;;;;;;5072524;28;20461;-61
2022/05/19 07:11:31;;;;;;;2.80;2.60;;;25.10;79.50;;;;;;5072549;28;20452;-61
2022/05/19 07:14:01;;;;;;;2.50;2.40;;;25.20;79.50;;;;;;5072536;28;20830;-60
2022/05/19 07:16:28;;;;;;;2.70;2.60;;;25.20;79.30;;;;;;5072590;28;20471;-59
2022/05/19 07:20:43;;;;;;;3.60;3.40;;;25.20;79.40;;;;;;5072176;28;20483;-60
2022/05/19 07:21:45;;;;;;;2.97;2.87;;;25.20;79.70;;;;;;5072244;28;20478;-60
2022/05/19 07:24:14;;;;;;;2.90;2.80;;;25.20;79.50;;;;;;5072169;28;20477;-59
2022/05/19 07:26:41;;;;;;;2.70;2.50;;;25.20;79.80;;;;;;5072200;28;20863;-60
2022/05/19 07:29:08;;;;;;;2.60;2.50;;;25.20;79.60;;;;;;5072073;28;20435;-59
2022/05/19 07:31:36;;;;;;;2.57;2.47;;;25.20;80.00;;;;;;5072058;28;20454;-59
2022/05/19 07:34:03;;;;;;;2.50;2.40;;;25.20;79.70;;;;;;5072166;28;20529;-60
2022/05/19 07:36:30;;;;;;;3.00;2.80;;;25.20;80.00;;;;;;5072141;28;20809;-56
2022/05/19 07:38:59;;;;;;;2.40;2.30;;;25.20;79.60;;;;;;5071912;28;20521;-60
2022/05/19 07:41:26;;;;;;;2.77;2.67;;;25.20;79.50;;;;;;5073745;28;20508;-60
2022/05/19 07:43:53;;;;;;;2.23;2.13;;;25.20;79.60;;;;;;5071946;28;20645;-60
2022/05/19 07:46:20;;;;;;;3.03;2.87;;;25.20;79.30;;;;;;5072004;28;20504;-60
2022/05/19 07:48:47;;;;;;;2.70;2.60;;;25.20;79.40;;;;;;5071680;28;20452;-60
2022/05/19 07:51:13;;;;;;;2.90;2.80;;;25.20;79.30;;;;;;5071806;28;20443;-59
2022/05/19 07:53:40;;;;;;;3.10;2.90;;;25.20;79.60;;;;;;5071869;28;20466;-60
2022/05/19 07:56:09;;;;;;;2.70;2.50;;;25.20;79.40;;;;;;5071909;28;20443;-59
2022/05/19 07:58:35;;;;;;;2.70;2.50;;;25.20;79.00;;;;;;5071696;28;20451;-60
2022/05/19 08:01:02;;;;;;;3.43;3.23;;;25.20;79.10;;;;;;5071790;28;20451;-59
2022/05/19 08:03:29;;;;;;;2.47;2.37;;;25.30;79.20;;;;;;5071586;28;20463;-58
2022/05/19 08:05:56;;;;;;;2.87;2.77;;;25.20;79.10;;;;;;5071668;28;20439;-59
2022/05/19 08:08:23;;;;;;;2.63;2.53;;;25.20;79.10;;;;;;5071493;28;20802;-60
2022/05/19 08:10:50;;;;;;;2.60;2.50;;;25.20;79.00;;;;;;5071712;28;20440;-57
2022/05/19 08:16:16;;;;;;;2.53;2.43;;;25.30;79.80;;;;;;5009536;28;20539;-59
2022/05/19 08:18:43;;;;;;;2.77;2.57;;;25.30;79.60;;;;;;5008748;28;20828;-60
2022/05/19 08:21:12;;;;;;;3.53;3.23;;;25.30;79.90;;;;;;5036459;28;20451;-59
2022/05/19 08:23:41;;;;;;;3.57;2.60;;;25.30;80.10;;;;;;5071242;28;20471;-59
2022/05/19 08:26:09;;;;;;;3.00;2.90;;;25.30;79.90;;;;;;5071517;28;20439;-60
2022/05/19 08:28:37;;;;;;;2.60;2.50;;;25.30;79.80;;;;;;5071235;28;20934;-61
2022/05/19 08:31:06;;;;;;;2.63;2.47;;;25.30;79.70;;;;;;5071439;28;20470;-61
2022/05/19 08:33:34;;;;;;;2.50;2.40;;;25.30;79.70;;;;;;5071322;28;20467;-60
2022/05/19 08:36:02;;;;;;;3.73;3.50;;;25.30;79.40;;;;;;5071467;28;20448;-61
2022/05/19 08:38:29;;;;;;;2.90;2.80;;;25.30;79.30;;;;;;5071381;28;20443;-60
2022/05/19 08:41:00;;;;;;;3.07;2.77;;;25.30;79.20;;;;;;5071107;28;20483;-59
2022/05/19 08:43:34;;;;;;;3.13;2.73;;;25.30;79.80;;;;;;5071219;28;20464;-61
2022/05/19 08:46:04;;;;;;;3.13;2.93;;;25.30;79.80;;;;;;5071199;28;20446;-60
2022/05/19 08:48:32;;;;;;;3.30;3.10;;;25.30;79.30;;;;;;5071122;28;20444;-61
2022/05/19 08:51:03;;;;;;;2.60;2.50;;;25.30;79.10;;;;;;5071266;28;20447;-60
2022/05/19 08:53:33;;;;;;;3.30;3.10;;;25.30;79.50;;;;;;5071146;28;20869;-59
2022/05/19 08:56:10;;;;;;;2.57;2.47;;;25.40;79.50;;;;;;5071107;28;20971;-59
2022/05/19 08:58:55;;;;;;;2.90;2.70;;;25.40;79.30;;;;;;5070916;28;20470;-60
2022/05/19 09:01:28;;;;;;;2.63;2.47;;;25.40;79.50;;;;;;5071098;28;20942;-59
2022/05/19 09:04:07;;;;;;;2.97;2.87;;;25.30;79.60;;;;;;5071017;28;20482;-60
2022/05/19 09:07:56;;;;;;;2.50;2.40;;;25.40;79.50;;;;;;5071201;28;20918;-60
2022/05/19 09:09:42;;;;;;;3.20;3.10;;;25.40;79.70;;;;;;5070699;28;20436;-61
2022/05/19 09:12:14;;;;;;;2.63;2.40;;;25.40;79.40;;;;;;5070988;28;20445;-58
2022/05/19 09:14:41;;;;;;;3.17;2.97;;;25.40;79.10;;;;;;5070916;28;20463;-61
2022/05/19 09:17:12;;;;;;;3.07;2.90;;;25.40;79.20;;;;;;5070810;28;20443;-60
2022/05/19 09:19:44;;;;;;;2.60;2.50;;;25.40;79.80;;;;;;5070860;28;20487;-60
2022/05/19 09:22:13;;;;;;;2.73;2.63;;;25.40;79.80;;;;;;5071015;28;20444;-61
2022/05/19 09:24:41;;;;;;;2.97;2.87;;;25.30;79.90;;;;;;5070674;28;20483;-61
2022/05/19 09:27:08;;;;;;;3.07;2.73;;;25.40;80.10;;;;;;5070720;28;20450;-61
2022/05/19 09:29:37;;;;;;;3.37;3.17;;;25.40;79.90;;;;;;5073072;28;20447;-61
2022/05/19 09:32:13;;;;;;;3.00;2.90;;;25.40;79.80;;;;;;5074478;28;20802;-59
2022/05/19 09:34:44;;;;;;;2.60;2.50;;;25.40;79.90;;;;;;5074408;28;20459;-61
2022/05/19 09:37:14;;;;;;;2.47;2.40;;;25.40;79.90;;;;;;5074370;28;20791;-61
2022/05/19 09:40:00;;;;;;;3.50;3.30;;;25.40;79.60;;;;;;5074260;28;20478;-61
2022/05/19 09:42:35;;;;;;;2.80;2.70;;;25.40;79.50;;;;;;5074357;28;20440;-59
2022/05/19 09:45:02;;;;;;;3.47;3.07;;;25.40;79.50;;;;;;5074229;28;20439;-59
2022/05/19 09:47:33;;;;;;;2.30;2.20;;;25.40;79.30;;;;;;5074199;28;20798;-59
2022/05/19 09:50:09;;;;;;;2.80;2.70;;;25.40;79.30;;;;;;5074278;28;20939;-61
2022/05/19 09:52:36;;;;;;;3.23;3.03;;;25.40;79.10;;;;;;5074006;28;20937;-60
2022/05/19 09:55:07;;;;;;;3.83;3.57;;;25.40;79.40;;;;;;5074063;28;20447;-59
2022/05/19 09:57:43;;;;;;;2.60;2.50;;;25.40;79.00;;;;;;5073978;28;20535;-60
2022/05/19 10:00:19;;;;;;;3.03;2.93;;;25.40;79.10;;;;;;5074042;28;20475;-61
2022/05/19 10:02:52;;;;;;;3.17;3.07;;;25.50;79.30;;;;;;5073944;28;20443;-61
2022/05/19 10:05:23;;;;;;;2.77;2.67;;;25.40;79.40;;;;;;5074058;28;20934;-61
2022/05/19 10:07:52;;;;;;;2.83;2.60;;;25.40;79.40;;;;;;5073772;28;20451;-61
2022/05/19 10:10:26;;;;;;;3.30;3.00;;;25.50;79.70;;;;;;5073755;28;20443;-61
2022/05/19 10:12:56;;;;;;;3.20;3.10;;;25.40;79.60;;;;;;5073691;28;20443;-60
2022/05/19 10:15:26;;;;;;;3.47;3.30;;;25.50;79.90;;;;;;5073720;28;20930;-61
2022/05/19 10:18:05;;;;;;;2.90;2.80;;;25.40;80.10;;;;;;5073559;28;20927;-61
2022/05/19 10:20:37;;;;;;;3.70;3.50;;;25.50;80.10;;;;;;5073664;28;20479;-61
2022/05/19 10:23:16;;;;;;;3.57;3.27;;;25.50;79.80;;;;;;5073994;28;20475;-56
2022/05/19 10:26:08;;;;;;;2.70;2.60;;;25.50;79.70;;;;;;5073342;28;20444;-60
2022/05/19 10:31:47;;;;;;;3.50;3.30;;;25.50;79.60;;;;;;5073660;28;20934;-60
2022/05/19 10:34:38;;;;;;;2.90;2.70;;;25.50;79.70;;;;;;5073315;28;20470;-61
2022/05/19 10:37:11;;;;;;;2.93;2.83;;;25.50;79.70;;;;;;5073141;28;20443;-60
2022/05/19 10:39:51;;;;;;;2.73;2.53;;;25.50;79.90;;;;;;5073012;28;20996;-58
2022/05/19 10:42:27;;;;;;;2.90;2.70;;;25.50;79.80;;;;;;5072970;28;20510;-62
2022/05/19 10:45:10;;;;;;;3.23;3.13;;;25.50;79.70;;;;;;5073147;28;20467;-60
2022/05/19 10:47:47;;;;;;;2.80;2.60;;;25.50;79.70;;;;;;5072888;28;20443;-60
2022/05/19 10:50:25;;;;;;;3.10;2.80;;;25.50;79.60;;;;;;5073134;28;20826;-58
2022/05/19 10:53:16;;;;;;;2.97;2.87;;;25.50;79.50;;;;;;5072939;28;20505;-61
2022/05/19 10:55:51;;;;;;;3.10;2.90;;;25.50;79.60;;;;;;5072873;28;20439;-59
2022/05/19 10:58:31;;;;;;;3.53;3.33;;;25.60;80.10;;;;;;5072634;28;20933;-59
2022/05/19 11:01:08;;;;;;;3.73;3.43;;;25.50;79.70;;;;;;5072766;28;21028;-56
2022/05/19 11:04:01;;;;;;;3.67;3.47;;;25.50;79.80;;;;;;5072779;28;20836;-60
2022/05/19 11:07:01;;;;;;;3.40;3.20;;;25.50;79.90;;;;;;5072712;28;20443;-59
2022/05/19 11:09:38;;;;;;;3.23;3.00;;;25.60;79.90;;;;;;5072331;28;20444;-58
2022/05/19 11:12:14;;;;;;;4.90;3.60;;;25.60;79.90;;;;;;5072691;28;20791;-58
2022/05/19 11:14:53;;;;;;;3.17;3.07;;;25.60;79.90;;;;;;5072447;28;20470;-58
2022/05/19 11:17:31;;;;;;;2.80;2.70;;;25.60;79.50;;;;;;5072405;28;20443;-57
2022/05/19 11:20:03;;;;;;;3.00;2.80;;;25.60;79.80;;;;;;5072342;28;20479;-58
2022/05/19 11:22:37;;;;;;;2.63;2.53;;;25.60;79.50;;;;;;5072459;28;20443;-60
2022/05/19 11:27:59;;;;;;;2.80;2.70;;;25.60;79.60;;;;;;5072244;28;20553;-62
2022/05/19 11:30:32;;;;;;;3.67;3.47;;;25.60;79.80;;;;;;5072231;28;20462;-59
2022/05/19 11:33:03;;;;;;;2.70;2.60;;;25.60;79.90;;;;;;5072499;28;20463;-63
2022/05/19 11:35:36;;;;;;;2.93;2.83;;;25.60;79.70;;;;;;5072197;28;20439;-59
2022/05/19 11:38:11;;;;;;;3.70;3.50;;;25.70;79.70;;;;;;5071974;28;20804;-61
2022/05/19 11:40:42;;;;;;;2.70;2.53;;;25.70;79.70;;;;;;5071964;28;21013;-60
2022/05/19 11:43:15;;;;;;;3.10;3.00;;;25.70;79.60;;;;;;5071972;28;20463;-61
2022/05/19 11:45:48;;;;;;;3.20;3.00;;;25.70;79.60;;;;;;5072043;28;20837;-62
2022/05/19 11:57:10;;;;;;;3.70;3.50;;;25.70;79.40;;;;;;5072020;28;20443;-60
2022/05/19 11:59:38;;;;;;;3.53;3.33;;;25.70;79.30;;;;;;5071810;28;20440;-62
2022/05/19 12:02:07;;;;;;;3.23;3.13;;;25.70;79.20;;;;;;5071716;28;21086;-60
2022/05/19 12:04:41;;;;;;;3.03;2.93;;;25.80;79.50;;;;;;5071587;28;20459;-61
2022/05/19 12:07:15;;;;;;;2.93;2.80;;;25.80;79.40;;;;;;5071649;28;20500;-60
2022/05/19 12:09:47;;;;;;;3.53;3.40;;;25.80;79.10;;;;;;5071618;28;20812;-61
2022/05/19 12:12:22;;;;;;;4.20;3.63;;;25.80;79.30;;;;;;5071611;28;20451;-60
2022/05/19 12:15:02;;;;;;;3.20;3.00;;;25.80;79.40;;;;;;5071534;28;20493;-60
2022/05/19 12:17:38;;;;;;;3.03;2.93;;;25.80;79.40;;;;;;5071501;28;20443;-59
2022/05/19 12:20:51;;;;;;;4.70;4.30;;;25.90;79.40;;;;;;5071677;28;20451;-61
2022/05/19 12:23:25;;;;;;;3.00;2.90;;;25.80;79.40;;;;;;5050946;28;20474;-59
2022/05/19 12:25:56;;;;;;;3.33;3.13;;;25.90;79.20;;;;;;5071673;28;20446;-62
2022/05/19 12:28:39;;;;;;;3.00;2.80;;;25.90;79.40;;;;;;5071488;28;20446;-60
2022/05/19 12:34:09;;;;;;;2.77;2.67;;;25.90;79.20;;;;;;5034963;28;20443;-62
2022/05/19 12:36:41;;;;;;;3.83;3.63;;;25.90;79.30;;;;;;5071344;28;20824;-62
2022/05/19 12:39:11;;;;;;;3.17;3.07;;;25.90;79.40;;;;;;5071386;28;20438;-60
2022/05/19 12:41:54;;;;;;;3.63;3.43;;;25.90;79.40;;;;;;5071193;28;20899;-59
2022/05/19 12:44:38;;;;;;;3.00;2.90;;;25.90;79.40;;;;;;5071254;28;20474;-62
2022/05/19 12:47:10;;;;;;;3.47;3.27;;;25.90;79.30;;;;;;5071135;28;20451;-61
2022/05/19 12:49:36;;;;;;;3.23;3.13;;;25.90;79.30;;;;;;5071248;28;20794;-61
2022/05/19 12:52:10;;;;;;;3.80;3.20;;;25.90;79.50;;;;;;5071092;28;20439;-61
2022/05/19 12:54:50;;;;;;;3.40;3.20;;;25.90;79.30;;;;;;5071385;28;20467;-60
2022/05/19 12:57:29;;;;;;;2.87;2.77;;;25.90;79.20;;;;;;5071025;28;20478;-60
2022/05/19 13:00:06;;;;;;;2.77;2.67;;;25.90;79.50;;;;;;5071220;28;20439;-62
2022/05/19 13:02:40;;;;;;;3.03;2.93;;;25.90;79.70;;;;;;5071229;28;20514;-62
2022/05/19 13:05:18;;;;;;;2.97;2.87;;;25.90;79.60;;;;;;5074578;28;20948;-60
2022/05/19 13:07:49;;;;;;;3.80;3.60;;;26.00;79.40;;;;;;5074867;28;20443;-62
2022/05/19 13:10:20;;;;;;;3.20;3.00;;;26.00;79.40;;;;;;5075250;28;20451;-59
2022/05/19 13:12:56;;;;;;;4.03;3.73;;;26.00;79.80;;;;;;5074852;28;20447;-59
2022/05/19 13:15:26;;;;;;;6.50;3.97;;;26.10;81.70;;;;;;5074833;28;20812;-59
2022/05/19 13:17:54;;;;;;;7.00;3.87;;;26.10;81.50;;;;;;5074505;28;20938;-60
2022/05/19 13:20:26;;;;;;;5.93;2.83;;;26.00;80.70;;;;;;5074581;28;20443;-59
2022/05/19 13:22:59;;;;;;;3.30;2.43;;;25.90;80.70;;;;;;5074508;28;20516;-61
2022/05/19 13:25:28;;;;;;;5.00;2.63;;;25.90;81.90;;;;;;5074689;28;20457;-60